Time;durP1;ratioP1;P1;durP2;ratioP2;P2;SDS_P1;SDS_P2;PMS_P1;PMS_P2;Temp;Humidity;BMP_temperature;BMP_pressure;BME280_temperature;BME280_humidity;BME280_pressure;Samples;Min_cycle;Max_cycle;Signal;HPM_P1;HPM_P2
2023/05/20 00:03:12;;;;;;;4.72;1.80;;;;;;;13.91;47.62;101216.06;10054962;29;20042;-76
2023/05/20 00:08:15;;;;;;;3.53;2.00;;;;;;;13.89;47.66;101202.69;10055292;29;20571;-76
2023/05/20 00:13:18;;;;;;;1.92;1.40;;;;;;;13.83;47.64;101199.63;10074433;29;20136;-76
2023/05/20 00:18:22;;;;;;;4.65;2.28;;;;;;;13.75;47.97;101205.66;10048115;29;20052;-77
2023/05/20 00:23:25;;;;;;;2.78;1.60;;;;;;;13.75;48.18;101204.81;10046781;29;20049;-76
2023/05/20 00:28:29;;;;;;;8.45;2.00;;;;;;;13.68;48.12;101205.28;10050217;29;20464;-76
2023/05/20 00:33:35;;;;;;;2.70;1.75;;;;;;;13.67;48.37;101216.22;10048001;29;20048;-75
2023/05/20 00:38:38;;;;;;;8.60;2.00;;;;;;;13.61;48.68;101212.19;10050950;29;20049;-77
2023/05/20 00:43:41;;;;;;;5.35;1.90;;;;;;;13.48;48.77;101201.50;10050644;29;20062;-77
2023/05/20 00:48:45;;;;;;;6.18;2.00;;;;;;;13.46;48.89;101208.00;10075804;29;20052;-77
2023/05/20 00:53:49;;;;;;;2.22;1.65;;;;;;;13.37;49.31;101215.00;10052273;29;20054;-77
2023/05/20 00:58:52;;;;;;;2.00;1.52;;;;;;;13.30;49.47;101210.16;10065649;29;20045;-77
2023/05/20 01:03:56;;;;;;;3.80;2.13;;;;;;;13.23;49.82;101207.13;10062385;29;20443;-77
2023/05/20 01:08:59;;;;;;;2.42;1.60;;;;;;;13.17;49.88;101202.22;10049152;29;20399;-77
2023/05/20 01:14:08;;;;;;;4.63;1.77;;;;;;;13.11;50.21;101202.69;10044950;29;20049;-76
2023/05/20 01:19:26;;;;;;;5.38;1.60;;;;;;;13.05;50.25;101201.31;10040997;29;20045;-76
2023/05/20 01:24:32;;;;;;;4.15;1.95;;;;;;;12.90;50.84;101192.63;10044740;29;20047;-77
2023/05/20 01:29:35;;;;;;;3.50;2.00;;;;;;;12.85;51.08;101192.09;10052953;29;20091;-77
2023/05/20 01:34:40;;;;;;;2.58;1.90;;;;;;;12.77;51.35;101194.53;10048363;29;20041;-78
2023/05/20 01:39:46;;;;;;;3.67;2.10;;;;;;;12.74;51.44;101192.09;10039048;29;20101;-76
2023/05/20 01:44:49;;;;;;;4.20;2.10;;;;;;;12.65;51.64;101176.63;10071127;29;20038;-76
2023/05/20 01:49:53;;;;;;;4.95;2.00;;;;;;;12.56;51.89;101170.97;10043131;29;20072;-78
2023/05/20 01:54:57;;;;;;;2.50;1.83;;;;;;;12.54;51.95;101169.38;10059541;29;20076;-74
2023/05/20 02:00:00;;;;;;;3.63;2.25;;;;;;;12.53;51.97;101183.81;10044890;29;20090;-76
2023/05/20 02:05:03;;;;;;;2.90;1.90;;;;;;;12.45;52.27;101175.44;10072707;29;20042;-77
2023/05/20 02:10:08;;;;;;;4.85;2.13;;;;;;;12.34;52.63;101179.84;10050972;29;20513;-75
2023/05/20 02:15:11;;;;;;;2.63;2.35;;;;;;;12.28;52.99;101174.00;10045741;29;20041;-76
2023/05/20 02:20:16;;;;;;;7.47;2.30;;;;;;;12.24;53.04;101176.09;10048788;29;20057;-75
2023/05/20 02:25:20;;;;;;;4.07;2.22;;;;;;;12.20;53.17;101179.13;10045558;29;20049;-76
2023/05/20 02:30:23;;;;;;;4.20;2.22;;;;;;;12.12;53.35;101177.88;10074885;29;20045;-77
2023/05/20 02:35:26;;;;;;;3.47;2.60;;;;;;;12.10;53.48;101176.28;10045834;29;20098;-75
2023/05/20 02:40:31;;;;;;;5.97;2.10;;;;;;;12.00;53.91;101173.41;10044927;29;20497;-77
2023/05/20 02:45:35;;;;;;;3.83;2.30;;;;;;;11.95;54.08;101173.72;10074164;29;20084;-76
2023/05/20 02:50:39;;;;;;;4.63;2.10;;;;;;;11.90;54.29;101165.16;10045731;29;20049;-76
2023/05/20 02:55:46;;;;;;;3.65;2.33;;;;;;;11.82;54.62;101170.25;10041357;29;20083;-76
2023/05/20 03:00:49;;;;;;;5.75;2.40;;;;;;;11.71;54.81;101171.03;10073200;29;20343;-74
2023/05/20 03:05:52;;;;;;;6.75;2.63;;;;;;;11.66;55.01;101173.22;10057295;29;20109;-77
2023/05/20 03:10:56;;;;;;;3.33;2.67;;;;;;;11.68;55.03;101173.97;10072761;29;20524;-74
2023/05/20 03:16:00;;;;;;;3.13;2.80;;;;;;;11.66;55.18;101169.66;10076288;29;20045;-76
2023/05/20 03:21:03;;;;;;;6.82;2.60;;;;;;;11.63;55.34;101178.81;10053220;29;20116;-75
2023/05/20 03:26:07;;;;;;;7.10;2.28;;;;;;;11.59;55.34;101174.63;10072997;29;20113;-75
2023/05/20 03:31:10;;;;;;;2.08;1.98;;;;;;;11.61;55.61;101185.28;10074592;29;20098;-77
2023/05/20 03:36:13;;;;;;;4.80;2.30;;;;;;;11.58;55.81;101183.66;10053369;29;20048;-76
2023/05/20 03:41:18;;;;;;;5.22;2.78;;;;;;;11.56;56.15;101191.00;10046703;29;20159;-77
2023/05/20 03:46:21;;;;;;;5.22;2.90;;;;;;;11.44;56.23;101199.97;10069138;29;20106;-77
2023/05/20 03:51:24;;;;;;;7.43;2.88;;;;;;;11.40;56.56;101206.50;10068090;29;20038;-77
2023/05/20 03:56:31;;;;;;;3.70;2.67;;;;;;;11.38;56.89;101201.25;10049512;29;20060;-77
2023/05/20 04:01:36;;;;;;;6.03;2.63;;;;;;;11.36;57.22;101195.13;10036579;29;20046;-77
2023/05/20 04:06:39;;;;;;;6.10;3.00;;;;;;;11.31;57.46;101182.97;10035736;29;20042;-76
2023/05/20 04:11:43;;;;;;;10.07;3.67;;;;;;;11.28;57.77;101182.22;10038236;29;20075;-75
2023/05/20 04:16:47;;;;;;;3.20;2.63;;;;;;;11.21;57.88;101180.91;10037421;29;20046;-76
2023/05/20 04:21:49;;;;;;;4.60;2.83;;;;;;;11.16;58.33;101193.88;10035896;29;20049;-77
2023/05/20 04:26:54;;;;;;;3.65;3.20;;;;;;;11.22;58.27;101181.81;10049309;29;20137;-76
2023/05/20 04:31:58;;;;;;;5.07;3.00;;;;;;;11.25;58.50;101182.44;10041831;29;20045;-77
2023/05/20 04:37:01;;;;;;;3.83;2.60;;;;;;;11.27;58.88;101182.31;10054780;29;20181;-75
2023/05/20 04:42:05;;;;;;;6.05;2.72;;;;;;;11.36;58.73;101180.81;10069053;29;20125;-76
2023/05/20 04:47:08;;;;;;;7.55;3.25;;;;;;;11.32;58.56;101184.69;10044883;29;20053;-76
2023/05/20 04:52:13;;;;;;;6.93;3.78;;;;;;;11.29;58.59;101177.69;10069828;29;20458;-77
2023/05/20 04:57:19;;;;;;;6.28;3.50;;;;;;;11.40;58.50;101182.31;10060841;29;20057;-77
2023/05/20 05:02:23;;;;;;;4.28;3.08;;;;;;;11.54;58.42;101174.09;10047055;29;20041;-76
2023/05/20 05:07:26;;;;;;;6.38;3.50;;;;;;;11.73;57.72;101169.06;10046547;29;20053;-77
2023/05/20 05:12:30;;;;;;;4.07;3.10;;;;;;;12.00;57.44;101164.47;10047260;29;20116;-77
2023/05/20 05:17:34;;;;;;;4.68;3.00;;;;;;;12.22;57.09;101161.00;10047105;29;20141;-77
2023/05/20 05:22:38;;;;;;;3.72;2.97;;;;;;;12.37;56.91;101158.06;10042402;29;20048;-77
2023/05/20 05:27:44;;;;;;;3.92;3.03;;;;;;;12.55;56.58;101160.31;10055801;29;20046;-76
2023/05/20 05:32:47;;;;;;;3.80;3.13;;;;;;;12.60;55.85;101158.97;10042654;29;20062;-76
2023/05/20 05:37:50;;;;;;;4.47;3.35;;;;;;;12.71;55.75;101159.97;10043937;29;20050;-75
2023/05/20 05:42:54;;;;;;;6.72;3.22;;;;;;;12.71;55.74;101157.28;10038933;29;20050;-77
2023/05/20 05:47:57;;;;;;;7.32;3.72;;;;;;;12.70;55.51;101159.13;10041369;29;20593;-76
2023/05/20 05:53:01;;;;;;;3.15;2.78;;;;;;;12.69;55.83;101165.47;10047699;29;20228;-76
2023/05/20 05:58:07;;;;;;;5.82;2.78;;;;;;;12.81;55.61;101169.06;10039695;29;20054;-76
2023/05/20 06:03:10;;;;;;;7.70;3.10;;;;;;;13.05;55.13;101159.06;10039243;29;20041;-77
2023/05/20 06:08:13;;;;;;;4.22;3.47;;;;;;;12.99;54.39;101154.13;10039949;29;20097;-77
2023/05/20 06:13:18;;;;;;;4.85;3.00;;;;;;;13.20;54.53;101150.72;10039255;29;20048;-76
2023/05/20 06:18:21;;;;;;;3.47;3.05;;;;;;;13.43;53.60;101147.03;10072782;29;20049;-76
2023/05/20 06:23:29;;;;;;;4.57;3.00;;;;;;;13.57;53.50;101164.81;10048974;29;20056;-77
2023/05/20 06:28:37;;;;;;;3.55;3.00;;;;;;;13.87;52.93;101164.13;10048002;29;20747;-77
2023/05/20 06:33:40;;;;;;;5.38;3.35;;;;;;;14.10;52.80;101158.69;10045311;29;20061;-77
2023/05/20 06:38:46;;;;;;;4.47;3.40;;;;;;;14.41;52.02;101158.81;10073393;29;20069;-77
2023/05/20 06:43:53;;;;;;;7.28;3.03;;;;;;;14.35;51.80;101155.59;10076480;29;20528;-76
2023/05/20 06:49:25;;;;;;;5.28;3.08;;;;;;;14.70;52.05;101153.59;10051681;29;20417;-75
2023/05/20 06:54:29;;;;;;;5.75;2.90;;;;;;;15.03;51.43;101134.44;10080481;29;20164;-77
2023/05/20 06:59:34;;;;;;;4.97;2.90;;;;;;;15.00;51.15;101126.59;10052212;29;20139;-77
2023/05/20 07:04:39;;;;;;;4.30;3.08;;;;;;;15.26;51.64;101131.53;10051635;29;20060;-76
2023/05/20 07:09:43;;;;;;;4.80;3.33;;;;;;;15.44;50.88;101138.06;10053842;29;20060;-77
2023/05/20 07:14:47;;;;;;;6.50;3.80;;;;;;;15.67;50.49;101121.56;10066894;29;20081;-76
2023/05/20 07:19:50;;;;;;;5.22;3.28;;;;;;;15.74;50.39;101127.25;10017096;29;20064;-75
2023/05/20 07:24:54;;;;;;;4.47;3.80;;;;;;;15.75;50.71;101119.00;10019732;29;20497;-75
2023/05/20 07:29:58;;;;;;;4.97;4.13;;;;;;;16.01;50.26;101111.19;10004468;29;20057;-76
2023/05/20 07:35:01;;;;;;;6.57;4.20;;;;;;;16.40;49.88;101111.22;10017046;29;20052;-76
2023/05/20 07:40:06;;;;;;;6.93;3.88;;;;;;;16.71;48.71;101113.72;10002363;29;20050;-76
2023/05/20 07:45:11;;;;;;;6.95;3.58;;;;;;;17.27;47.90;101106.53;10033108;29;20049;-76
2023/05/20 07:50:14;;;;;;;3.72;3.42;;;;;;;17.76;47.52;101097.06;10004243;29;20777;-77
2023/05/20 07:55:18;;;;;;;4.18;3.03;;;;;;;18.76;44.33;101089.59;10009877;29;20187;-77
2023/05/20 08:00:23;;;;;;;2.97;2.65;;;;;;;18.84;43.54;101086.06;10013668;29;20517;-75
2023/05/20 08:05:26;;;;;;;3.33;2.30;;;;;;;18.27;44.33;101084.66;10010741;29;20053;-75
2023/05/20 08:10:29;;;;;;;7.22;2.60;;;;;;;18.42;44.43;101093.09;10001363;29;20053;-77
2023/05/20 08:15:35;;;;;;;2.05;1.90;;;;;;;18.03;44.41;101087.16;10002102;29;20045;-75
2023/05/20 08:20:38;;;;;;;4.90;2.53;;;;;;;18.39;43.74;101085.25;10031882;29;20054;-76
2023/05/20 08:25:41;;;;;;;3.83;2.17;;;;;;;18.14;44.38;101081.50;10008293;29;20060;-77
2023/05/20 08:30:47;;;;;;;4.55;1.98;;;;;;;18.13;43.91;101082.50;10043050;29;20068;-76
2023/05/20 08:35:50;;;;;;;2.97;2.00;;;;;;;18.43;43.34;101073.06;10008254;29;20097;-75
2023/05/20 08:40:55;;;;;;;3.35;2.22;;;;;;;18.68;43.02;101067.78;10009456;29;20058;-77
2023/05/20 08:46:01;;;;;;;6.18;2.53;;;;;;;18.53;43.03;101064.78;10008850;29;21116;-77
2023/05/20 08:51:09;;;;;;;4.97;2.20;;;;;;;18.70;43.60;101069.28;10041140;29;20061;-75
2023/05/20 08:56:13;;;;;;;4.47;2.10;;;;;;;19.00;42.25;101069.81;10009026;29;20195;-76
2023/05/20 09:01:17;;;;;;;5.28;2.33;;;;;;;19.24;42.26;101064.47;10015080;29;20117;-75
2023/05/20 09:06:20;;;;;;;2.05;1.85;;;;;;;19.54;41.38;101059.47;10017895;29;20050;-76
2023/05/20 09:11:23;;;;;;;2.30;2.00;;;;;;;19.68;41.37;101063.44;10018595;29;20068;-76
2023/05/20 09:16:28;;;;;;;2.42;2.22;;;;;;;20.19;41.54;101060.59;10022786;29;20064;-74
2023/05/20 09:21:31;;;;;;;2.75;2.30;;;;;;;20.29;41.09;101064.81;10024966;29;20152;-74
2023/05/20 09:26:33;;;;;;;2.15;2.00;;;;;;;20.29;40.16;101067.56;10021732;29;20106;-75
2023/05/20 09:31:38;;;;;;;2.85;2.15;;;;;;;20.02;40.85;101063.31;10015761;29;20053;-75
2023/05/20 09:36:43;;;;;;;3.78;2.63;;;;;;;20.37;40.56;101052.25;10014451;29;20123;-75
2023/05/20 09:41:55;;;;;;;4.78;2.67;;;;;;;20.62;41.27;101051.16;10015125;29;20182;-75
2023/05/20 09:47:01;;;;;;;2.50;2.30;;;;;;;21.40;40.13;101039.44;10007656;29;20054;-74
2023/05/20 09:52:05;;;;;;;3.67;2.25;;;;;;;20.57;39.79;101042.66;10008771;29;20054;-74
2023/05/20 09:57:09;;;;;;;3.47;2.97;;;;;;;20.46;40.71;101041.16;10003911;29;20050;-76
2023/05/20 10:02:13;;;;;;;4.32;2.47;;;;;;;20.85;40.01;101043.09;10014379;29;20061;-76
2023/05/20 10:07:35;;;;;;;5.55;2.67;;;;;;;20.78;40.14;101028.44;9997367;29;20061;-75
2023/05/20 10:12:55;;;;;;;4.82;3.30;;;;;;;21.23;39.78;101035.97;10005205;29;20061;-75
2023/05/20 10:18:11;;;;;;;2.72;2.53;;;;;;;21.80;39.40;101023.84;10008131;29;20065;-74
2023/05/20 10:23:21;;;;;;;3.65;3.00;;;;;;;21.62;39.34;101026.84;10006015;29;20057;-75
2023/05/20 10:28:34;;;;;;;6.57;3.00;;;;;;;21.81;39.37;101025.53;10005192;29;20050;-75
2023/05/20 10:33:43;;;;;;;2.88;2.58;;;;;;;21.48;38.77;101016.69;10009185;29;20060;-76
2023/05/20 10:38:52;;;;;;;4.35;3.30;;;;;;;20.79;40.14;101024.69;10004580;29;20057;-75
2023/05/20 10:44:02;;;;;;;6.78;3.55;;;;;;;20.07;41.37;101019.16;10003656;29;20429;-74
2023/05/20 10:49:17;;;;;;;5.93;3.53;;;;;;;20.42;41.59;101028.03;10002310;29;20102;-76
2023/05/20 10:54:22;;;;;;;4.60;3.38;;;;;;;20.13;41.98;101023.94;10013167;29;20060;-76
2023/05/20 10:59:26;;;;;;;4.28;3.88;;;;;;;20.05;42.21;101034.88;10011828;29;20050;-75
2023/05/20 11:04:31;;;;;;;4.20;3.80;;;;;;;20.36;42.03;101020.53;10013974;29;20514;-74
2023/05/20 11:09:34;;;;;;;7.30;3.70;;;;;;;19.18;43.70;101013.41;10008561;29;20045;-75
2023/05/20 11:14:37;;;;;;;7.43;3.97;;;;;;;19.45;43.10;101014.16;10004023;29;20495;-77
2023/05/20 11:19:41;;;;;;;4.78;3.28;;;;;;;19.01;43.55;101015.22;10007826;29;20109;-76
2023/05/20 11:24:44;;;;;;;5.93;3.53;;;;;;;19.71;42.97;101007.75;10006132;29;20074;-75
2023/05/20 11:29:50;;;;;;;5.38;4.53;;;;;;;19.83;42.77;101009.13;10005065;29;20065;-76
2023/05/20 11:34:54;;;;;;;4.30;3.38;;;;;;;20.11;42.31;100994.09;10009314;29;20050;-74
2023/05/20 11:40:06;;;;;;;3.90;3.03;;;;;;;20.77;41.44;100986.63;10013429;29;20148;-76
2023/05/20 11:45:13;;;;;;;;;;;;;;;20.77;41.30;100994.81;10007812;29;20108;-75
2023/05/20 11:50:18;;;;;;;3.25;2.80;;;;;;;21.04;41.39;100978.19;10010973;29;19928;-75
2023/05/20 11:55:21;;;;;;;3.40;3.10;;;;;;;21.16;40.23;100980.31;10010975;29;20056;-76
2023/05/20 12:00:24;;;;;;;3.30;3.00;;;;;;;21.57;40.12;100990.97;10013689;29;20050;-76
2023/05/20 12:05:32;;;;;;;4.80;3.08;;;;;;;21.79;39.37;100972.91;10011830;29;20817;-75
2023/05/20 12:10:36;;;;;;;3.38;3.10;;;;;;;21.54;39.94;100971.38;10005147;29;20534;-75
2023/05/20 12:15:39;;;;;;;4.07;2.33;;;;;;;21.35;40.84;100959.88;10007304;29;20114;-75
2023/05/20 12:20:43;;;;;;;3.75;2.88;;;;;;;21.23;40.64;100953.16;10003805;29;20070;-74
2023/05/20 12:25:48;;;;;;;3.60;2.50;;;;;;;21.42;40.94;100949.94;9999223;29;20057;-74
2023/05/20 12:30:51;;;;;;;4.65;2.63;;;;;;;20.85;41.01;100947.53;10005194;29;20061;-77
2023/05/20 12:35:56;;;;;;;5.30;2.92;;;;;;;20.34;42.71;100944.31;10001416;29;20057;-75
2023/05/20 12:40:58;;;;;;;3.97;2.75;;;;;;;20.46;42.12;100940.19;10008576;29;20053;-75
2023/05/20 12:46:02;;;;;;;3.90;2.70;;;;;;;21.51;40.55;100931.59;10010742;29;20518;-75
2023/05/20 12:51:06;;;;;;;3.90;2.53;;;;;;;22.82;37.80;100922.03;10024784;29;20049;-77
2023/05/20 12:56:09;;;;;;;3.53;2.92;;;;;;;21.96;39.09;100920.78;10017302;29;20052;-76
2023/05/20 13:01:12;;;;;;;2.17;2.00;;;;;;;22.41;38.69;100927.16;10012874;29;20537;-77
2023/05/20 13:06:16;;;;;;;3.72;2.83;;;;;;;21.87;39.50;100926.34;10013404;29;20074;-75
2023/05/20 13:11:20;;;;;;;4.35;2.58;;;;;;;21.91;39.59;100912.28;10014219;29;20053;-75
2023/05/20 13:16:23;;;;;;;3.00;2.42;;;;;;;21.73;40.07;100908.00;10009216;29;21173;-75
2023/05/20 13:21:27;;;;;;;3.67;2.90;;;;;;;21.30;41.02;100902.19;10012047;29;20061;-75
2023/05/20 13:26:30;;;;;;;5.15;2.83;;;;;;;21.66;40.09;100896.09;10006833;29;21661;-75
2023/05/20 13:31:33;;;;;;;4.15;3.25;;;;;;;22.64;39.31;100870.41;10011366;29;20424;-76
2023/05/20 13:36:38;;;;;;;2.90;2.70;;;;;;;22.00;39.44;100884.69;10012609;29;20053;-77
2023/05/20 13:41:41;;;;;;;4.32;2.95;;;;;;;21.69;39.95;100887.50;10008702;29;20064;-76
2023/05/20 13:46:43;;;;;;;4.22;2.75;;;;;;;21.41;41.45;100865.41;10004593;29;20049;-76
2023/05/20 13:51:48;;;;;;;3.05;2.67;;;;;;;23.75;37.86;100850.84;10003232;29;20057;-76
2023/05/20 13:56:51;;;;;;;4.18;2.80;;;;;;;22.69;39.10;100850.69;10008993;29;20961;-77
2023/05/20 14:01:54;;;;;;;3.08;2.88;;;;;;;22.63;39.19;100852.31;10014674;29;20050;-78
2023/05/20 14:06:59;;;;;;;3.13;2.83;;;;;;;22.19;39.68;100858.66;10005915;29;20102;-77
2023/05/20 14:12:02;;;;;;;4.75;3.25;;;;;;;21.44;40.70;100854.94;10015571;29;20054;-77
2023/05/20 14:17:05;;;;;;;6.88;3.40;;;;;;;20.98;41.90;100857.69;10010380;29;20513;-77
2023/05/20 14:22:09;;;;;;;4.65;3.08;;;;;;;20.36;42.76;100845.94;10005015;29;20053;-76
2023/05/20 14:27:12;;;;;;;3.67;3.38;;;;;;;20.26;43.14;100846.09;10004342;29;20086;-77
2023/05/20 14:32:15;;;;;;;6.45;3.63;;;;;;;21.12;41.87;100847.03;10006282;29;20058;-76
2023/05/20 14:37:21;;;;;;;6.38;3.85;;;;;;;20.55;42.84;100849.06;10008687;29;20060;-75
2023/05/20 14:42:24;;;;;;;5.78;3.95;;;;;;;20.21;43.59;100843.88;10006771;29;20091;-77
2023/05/20 14:47:27;;;;;;;5.55;4.13;;;;;;;19.83;44.45;100840.13;10007386;29;20635;-77
2023/05/20 14:52:31;;;;;;;8.73;4.20;;;;;;;19.67;44.52;100849.19;10013212;29;20136;-79
2023/05/20 14:57:34;;;;;;;5.65;4.50;;;;;;;19.47;44.99;100848.63;10041692;29;20056;-77
2023/05/20 15:02:37;;;;;;;8.52;4.70;;;;;;;19.32;45.36;100844.91;10011547;29;20064;-75
2023/05/20 15:07:41;;;;;;;5.63;4.10;;;;;;;19.52;45.23;100839.97;10012680;29;20070;-77
2023/05/20 15:12:46;;;;;;;5.13;4.20;;;;;;;19.24;45.82;100849.34;10025273;29;21108;-77
2023/05/20 15:17:49;;;;;;;5.32;4.45;;;;;;;19.14;46.35;100836.91;10024729;29;20049;-77
2023/05/20 15:22:53;;;;;;;7.72;4.72;;;;;;;19.24;46.21;100845.75;10037266;29;20054;-77
2023/05/20 15:27:56;;;;;;;6.28;5.03;;;;;;;18.33;47.69;100847.41;10034686;29;20053;-77
2023/05/20 15:32:59;;;;;;;14.80;8.75;;;;;;;18.08;47.88;100842.91;10018750;29;20106;-77
2023/05/20 15:38:04;;;;;;;7.20;4.78;;;;;;;18.13;48.21;100844.13;10021040;29;20057;-77
2023/05/20 15:43:07;;;;;;;7.88;5.45;;;;;;;18.02;48.73;100832.66;10026264;29;20045;-77
2023/05/20 15:48:11;;;;;;;8.10;4.97;;;;;;;18.02;48.49;100828.09;10030094;29;20064;-78
2023/05/20 15:53:15;;;;;;;9.05;4.47;;;;;;;17.89;49.21;100830.38;10025862;29;20049;-77
2023/05/20 15:58:18;;;;;;;9.38;6.80;;;;;;;17.95;48.55;100834.31;10027305;29;20053;-78
2023/05/20 16:03:21;;;;;;;9.70;6.47;;;;;;;18.02;48.90;100836.25;10034326;29;20056;-77
2023/05/20 16:08:28;;;;;;;8.57;7.68;;;;;;;17.95;49.05;100818.84;10030964;29;20061;-77
2023/05/20 16:13:31;;;;;;;9.18;6.63;;;;;;;17.89;49.05;100814.91;10030881;29;20529;-78
2023/05/20 16:18:34;;;;;;;9.88;7.10;;;;;;;17.98;48.91;100818.53;10021834;29;20160;-77
2023/05/20 16:23:38;;;;;;;35.63;15.38;;;;;;;18.21;48.52;100817.97;10004250;29;20466;-76
2023/05/20 16:28:41;;;;;;;9.23;6.28;;;;;;;18.22;48.52;100817.81;10009689;29;20040;-77
2023/05/20 16:33:44;;;;;;;8.65;6.55;;;;;;;18.16;48.86;100810.31;10007499;29;20050;-77
2023/05/20 16:38:48;;;;;;;8.23;5.88;;;;;;;18.33;49.06;100812.06;10005216;29;20809;-76
2023/05/20 16:43:51;;;;;;;8.48;6.00;;;;;;;18.12;48.92;100820.63;10017230;29;20538;-77
2023/05/20 16:48:54;;;;;;;9.35;6.47;;;;;;;17.75;49.57;100812.78;10013263;29;20065;-78
2023/05/20 16:53:59;;;;;;;8.38;6.93;;;;;;;17.62;50.22;100799.63;10013462;29;20061;-77
2023/05/20 16:59:03;;;;;;;8.05;6.50;;;;;;;17.52;50.33;100804.31;10023598;29;20068;-77
2023/05/20 17:04:06;;;;;;;8.40;6.60;;;;;;;17.47;50.64;100809.41;10021852;29;20049;-76
2023/05/20 17:09:10;;;;;;;8.55;6.72;;;;;;;17.53;50.68;100802.47;10019986;29;20046;-76
2023/05/20 17:14:13;;;;;;;8.98;6.80;;;;;;;17.55;51.07;100803.16;10013529;29;20058;-77
2023/05/20 17:19:16;;;;;;;11.00;7.57;;;;;;;17.48;51.38;100808.38;10017908;29;20046;-75
2023/05/20 17:24:20;;;;;;;9.60;6.35;;;;;;;17.50;51.31;100819.06;10017415;29;20054;-77
2023/05/20 17:29:23;;;;;;;8.07;6.43;;;;;;;17.40;51.59;100820.03;10016204;29;20084;-77
2023/05/20 17:34:26;;;;;;;9.60;6.18;;;;;;;17.41;51.73;100819.00;10021914;29;20054;-77
2023/05/20 17:39:30;;;;;;;8.95;6.85;;;;;;;17.44;51.46;100810.56;10018072;29;20053;-77
2023/05/20 17:44:33;;;;;;;7.72;5.95;;;;;;;17.55;51.45;100809.44;10016818;29;20053;-77
2023/05/20 17:49:36;;;;;;;10.23;6.38;;;;;;;17.54;51.58;100799.59;10009243;29;20057;-76
2023/05/20 17:54:40;;;;;;;8.60;7.07;;;;;;;17.61;51.27;100816.09;10006827;29;20521;-76
2023/05/20 17:59:44;;;;;;;9.88;6.93;;;;;;;17.29;51.74;100820.28;10010067;29;20415;-76
2023/05/20 18:04:47;;;;;;;8.98;7.13;;;;;;;17.21;52.30;100831.06;10013357;29;20089;-76
2023/05/20 18:09:51;;;;;;;8.77;7.55;;;;;;;17.12;52.48;100834.72;9999177;29;20053;-75
2023/05/20 18:14:54;;;;;;;17.88;8.35;;;;;;;17.07;52.90;100846.03;9987040;29;20061;-77
2023/05/20 18:19:57;;;;;;;8.95;6.68;;;;;;;17.11;52.70;100841.13;10008651;29;20081;-76
2023/05/20 18:25:01;;;;;;;9.80;6.60;;;;;;;17.11;53.18;100827.56;10007508;29;20049;-76
2023/05/20 18:30:06;;;;;;;15.70;7.15;;;;;;;16.93;53.07;100831.13;10003302;29;20724;-76
2023/05/20 18:35:10;;;;;;;9.68;7.10;;;;;;;16.73;53.67;100837.69;10007113;29;20054;-74
2023/05/20 18:40:14;;;;;;;8.68;6.70;;;;;;;16.88;53.62;100840.75;10002502;29;20408;-77
2023/05/20 18:45:17;;;;;;;8.85;6.47;;;;;;;16.86;53.72;100832.75;10010952;29;20061;-79
2023/05/20 18:50:20;;;;;;;7.88;6.13;;;;;;;16.81;53.61;100832.34;10014354;29;20064;-78
2023/05/20 18:55:25;;;;;;;9.02;6.35;;;;;;;16.83;53.60;100832.22;10011943;29;20049;-76
2023/05/20 19:00:28;;;;;;;10.15;6.30;;;;;;;16.87;53.75;100830.91;10044103;29;20053;-78
2023/05/20 19:05:30;;;;;;;10.57;6.80;;;;;;;16.75;53.88;100832.97;10026796;29;20050;-79
2023/05/20 19:10:35;;;;;;;6.70;5.70;;;;;;;16.73;54.18;100816.00;10024054;29;20045;-77
2023/05/20 19:15:38;;;;;;;10.30;5.90;;;;;;;16.68;54.30;100816.47;10015748;29;20049;-76
2023/05/20 19:20:41;;;;;;;7.22;5.75;;;;;;;16.67;54.29;100812.03;10019633;29;20062;-76
2023/05/20 19:25:45;;;;;;;6.85;5.43;;;;;;;16.57;54.63;100817.56;10017652;29;20050;-76
2023/05/20 19:30:48;;;;;;;9.60;5.93;;;;;;;16.54;54.87;100833.28;10019093;29;20061;-77
2023/05/20 19:35:51;;;;;;;7.45;5.75;;;;;;;16.56;54.98;100834.84;10019839;29;20109;-76
2023/05/20 19:40:56;;;;;;;8.40;5.75;;;;;;;16.45;55.20;100840.44;10012996;29;20061;-77
2023/05/20 19:45:59;;;;;;;8.27;5.68;;;;;;;16.36;55.33;100841.38;10011311;29;20066;-77
2023/05/20 19:51:02;;;;;;;7.03;5.15;;;;;;;16.14;55.65;100835.31;10026981;29;20124;-76
2023/05/20 19:56:07;;;;;;;9.20;5.63;;;;;;;16.04;55.98;100828.22;10035911;29;20045;-75
2023/05/20 20:01:11;;;;;;;7.60;5.43;;;;;;;15.95;56.60;100826.41;10047224;29;20057;-76
2023/05/20 20:06:14;;;;;;;8.82;5.57;;;;;;;15.89;56.46;100820.59;10023296;29;20110;-77
2023/05/20 20:11:18;;;;;;;6.28;5.07;;;;;;;15.89;56.84;100812.47;10027895;29;20052;-77
2023/05/20 20:16:21;;;;;;;7.82;5.45;;;;;;;15.83;56.83;100809.50;10029798;29;20068;-76
2023/05/20 20:21:25;;;;;;;6.40;5.65;;;;;;;15.79;56.96;100806.22;10039686;29;20072;-79
2023/05/20 20:26:29;;;;;;;8.32;5.18;;;;;;;15.78;56.91;100811.81;10056204;29;20041;-78
2023/05/20 20:31:32;;;;;;;8.48;5.40;;;;;;;15.70;57.22;100807.97;10030632;29;20057;-79
2023/05/20 20:36:35;;;;;;;5.40;4.82;;;;;;;15.69;57.50;100808.13;10020076;29;20517;-78
2023/05/20 20:41:43;;;;;;;9.48;5.72;;;;;;;15.59;57.63;100804.59;10019308;29;20053;-78
2023/05/20 20:46:49;;;;;;;6.03;5.10;;;;;;;15.50;57.96;100802.78;10018547;29;20056;-78
2023/05/20 20:51:52;;;;;;;6.10;4.68;;;;;;;15.33;58.12;100802.50;10021504;29;20052;-78
2023/05/20 20:56:58;;;;;;;9.93;4.78;;;;;;;15.30;58.82;100801.91;10011408;29;21151;-77
2023/05/20 21:02:02;;;;;;;8.70;5.53;;;;;;;15.20;58.78;100796.53;10020940;29;20056;-75
2023/05/20 21:07:04;;;;;;;7.40;5.63;;;;;;;15.14;59.17;100800.66;10026988;29;20053;-77
2023/05/20 21:12:09;;;;;;;7.75;5.55;;;;;;;15.13;59.04;100787.25;10026913;29;20053;-76
2023/05/20 21:17:12;;;;;;;8.23;5.22;;;;;;;15.18;59.41;100790.41;10036386;29;20116;-76
2023/05/20 21:22:15;;;;;;;8.05;5.30;;;;;;;15.27;58.86;100795.78;10040924;29;20192;-78
2023/05/20 21:27:20;;;;;;;7.78;5.03;;;;;;;15.27;59.31;100781.38;10031125;29;20060;-78
2023/05/20 21:32:22;;;;;;;9.00;5.68;;;;;;;15.25;59.19;100778.00;10026034;29;20056;-78
2023/05/20 21:37:26;;;;;;;6.40;5.80;;;;;;;15.26;59.28;100777.84;10027076;29;20053;-77
2023/05/20 21:42:30;;;;;;;8.73;5.70;;;;;;;15.19;59.15;100759.63;10024014;29;20571;-78
2023/05/20 21:47:33;;;;;;;6.88;5.57;;;;;;;15.15;59.42;100760.91;10023471;29;20069;-77
2023/05/20 21:52:36;;;;;;;11.05;5.13;;;;;;;15.18;59.64;100764.19;10017439;29;20048;-77
2023/05/20 21:57:40;;;;;;;7.72;5.47;;;;;;;15.17;59.56;100753.53;10011111;29;20136;-76
2023/05/20 22:02:43;;;;;;;6.35;5.32;;;;;;;15.14;59.59;100757.38;10049541;29;20132;-77
2023/05/20 22:07:46;;;;;;;7.63;5.18;;;;;;;15.12;59.85;100753.94;10050998;29;20278;-78
2023/05/20 22:12:50;;;;;;;6.63;5.75;;;;;;;15.04;60.13;100751.97;10055605;29;20083;-77
2023/05/20 22:17:54;;;;;;;8.23;5.80;;;;;;;14.94;60.30;100748.41;10078733;29;20029;-74
2023/05/20 22:22:57;;;;;;;8.15;5.55;;;;;;;14.88;60.57;100743.56;10095795;29;20074;-73
2023/05/20 22:28:03;;;;;;;7.00;5.30;;;;;;;14.77;60.92;100736.47;10093764;29;20076;-72
2023/05/20 22:33:06;;;;;;;7.30;5.03;;;;;;;14.67;61.38;100722.09;10121241;29;20044;-75
2023/05/20 22:38:09;;;;;;;7.63;5.32;;;;;;;14.58;61.51;100712.13;10091544;29;20089;-75
2023/05/20 22:43:13;;;;;;;7.88;5.75;;;;;;;14.48;61.90;100716.69;10091342;29;20101;-74
2023/05/20 22:48:16;;;;;;;7.60;5.53;;;;;;;14.40;62.16;100713.81;10091444;29;20045;-73
2023/05/20 22:53:19;;;;;;;6.53;5.50;;;;;;;14.36;62.62;100702.44;10089295;29;20625;-76
2023/05/20 22:58:23;;;;;;;9.07;5.88;;;;;;;14.35;62.71;100706.13;10070035;29;20057;-76
2023/05/20 23:03:26;;;;;;;8.60;6.15;;;;;;;14.29;63.25;100685.94;10077104;29;20072;-74
2023/05/20 23:08:29;;;;;;;7.15;5.90;;;;;;;14.31;63.32;100686.63;10082699;29;20049;-75
2023/05/20 23:13:33;;;;;;;7.78;6.30;;;;;;;14.25;63.45;100683.66;10078887;29;20053;-75
2023/05/20 23:18:36;;;;;;;8.00;6.20;;;;;;;14.23;63.39;100682.94;10078331;29;20108;-74